sensor_id;sensor_type;location;lat;lon;timestamp;temperature;humidity
53926;DHT22;39836;52.754;6.866;2023-04-24T00:00:17;9.90;83.70
53926;DHT22;39836;52.754;6.866;2023-04-24T00:02:44;9.90;83.80
53926;DHT22;39836;52.754;6.866;2023-04-24T00:05:13;9.80;83.80
53926;DHT22;39836;52.754;6.866;2023-04-24T00:07:43;9.70;83.80
53926;DHT22;39836;52.754;6.866;2023-04-24T00:10:09;9.70;83.90
53926;DHT22;39836;52.754;6.866;2023-04-24T00:12:35;9.80;83.90
53926;DHT22;39836;52.754;6.866;2023-04-24T00:15:01;9.70;84.00
53926;DHT22;39836;52.754;6.866;2023-04-24T00:17:27;9.70;84.00
53926;DHT22;39836;52.754;6.866;2023-04-24T00:19:53;9.70;84.00
53926;DHT22;39836;52.754;6.866;2023-04-24T00:22:28;9.70;84.00
53926;DHT22;39836;52.754;6.866;2023-04-24T00:24:54;9.60;84.00
53926;DHT22;39836;52.754;6.866;2023-04-24T00:27:19;9.60;84.00
53926;DHT22;39836;52.754;6.866;2023-04-24T00:29:45;9.60;84.00
53926;DHT22;39836;52.754;6.866;2023-04-24T00:32:11;9.70;84.00
53926;DHT22;39836;52.754;6.866;2023-04-24T00:34:37;9.60;83.90
53926;DHT22;39836;52.754;6.866;2023-04-24T00:37:03;9.70;83.90
53926;DHT22;39836;52.754;6.866;2023-04-24T00:39:28;9.60;83.80
53926;DHT22;39836;52.754;6.866;2023-04-24T00:41:54;9.60;83.60
53926;DHT22;39836;52.754;6.866;2023-04-24T00:44:20;9.60;83.50
53926;DHT22;39836;52.754;6.866;2023-04-24T00:46:46;9.60;83.50
53926;DHT22;39836;52.754;6.866;2023-04-24T00:49:18;9.60;83.40
53926;DHT22;39836;52.754;6.866;2023-04-24T00:51:44;9.50;83.30
53926;DHT22;39836;52.754;6.866;2023-04-24T00:54:13;9.50;83.30
53926;DHT22;39836;52.754;6.866;2023-04-24T00:56:40;9.50;83.30
53926;DHT22;39836;52.754;6.866;2023-04-24T00:59:06;9.60;83.20
53926;DHT22;39836;52.754;6.866;2023-04-24T01:01:32;9.50;83.10
53926;DHT22;39836;52.754;6.866;2023-04-24T01:03:59;9.50;83.00
53926;DHT22;39836;52.754;6.866;2023-04-24T01:06:28;9.50;83.00
53926;DHT22;39836;52.754;6.866;2023-04-24T01:08:57;9.50;82.90
53926;DHT22;39836;52.754;6.866;2023-04-24T01:11:25;9.50;82.90
53926;DHT22;39836;52.754;6.866;2023-04-24T01:13:51;9.50;82.80
53926;DHT22;39836;52.754;6.866;2023-04-24T01:16:17;9.50;82.90
53926;DHT22;39836;52.754;6.866;2023-04-24T01:18:46;9.50;82.90
53926;DHT22;39836;52.754;6.866;2023-04-24T01:21:14;9.40;82.80
53926;DHT22;39836;52.754;6.866;2023-04-24T01:23:40;9.40;82.80
53926;DHT22;39836;52.754;6.866;2023-04-24T01:26:06;9.40;82.80
53926;DHT22;39836;52.754;6.866;2023-04-24T01:28:31;9.40;82.80
53926;DHT22;39836;52.754;6.866;2023-04-24T01:30:57;9.40;82.80
53926;DHT22;39836;52.754;6.866;2023-04-24T01:33:23;9.40;82.80
53926;DHT22;39836;52.754;6.866;2023-04-24T01:35:49;9.40;82.80
53926;DHT22;39836;52.754;6.866;2023-04-24T01:38:15;9.40;82.80
53926;DHT22;39836;52.754;6.866;2023-04-24T01:40:41;9.40;82.90
53926;DHT22;39836;52.754;6.866;2023-04-24T01:43:07;9.30;82.90
53926;DHT22;39836;52.754;6.866;2023-04-24T01:45:33;9.30;83.00
53926;DHT22;39836;52.754;6.866;2023-04-24T01:47:58;9.30;83.00
53926;DHT22;39836;52.754;6.866;2023-04-24T01:50:25;9.40;83.10
53926;DHT22;39836;52.754;6.866;2023-04-24T01:52:51;9.30;83.20
53926;DHT22;39836;52.754;6.866;2023-04-24T01:55:17;9.30;83.20
53926;DHT22;39836;52.754;6.866;2023-04-24T01:57:42;9.30;83.20
53926;DHT22;39836;52.754;6.866;2023-04-24T02:00:08;9.30;83.30
53926;DHT22;39836;52.754;6.866;2023-04-24T02:02:38;9.30;83.40
53926;DHT22;39836;52.754;6.866;2023-04-24T02:05:06;9.30;83.40
53926;DHT22;39836;52.754;6.866;2023-04-24T02:07:32;9.20;83.50
53926;DHT22;39836;52.754;6.866;2023-04-24T02:09:58;9.30;83.50
53926;DHT22;39836;52.754;6.866;2023-04-24T02:12:24;9.30;83.40
53926;DHT22;39836;52.754;6.866;2023-04-24T02:14:49;9.30;83.30
53926;DHT22;39836;52.754;6.866;2023-04-24T02:17:15;9.40;83.20
53926;DHT22;39836;52.754;6.866;2023-04-24T02:19:41;9.40;83.10
53926;DHT22;39836;52.754;6.866;2023-04-24T02:22:07;9.40;82.90
53926;DHT22;39836;52.754;6.866;2023-04-24T02:24:33;9.50;82.90
53926;DHT22;39836;52.754;6.866;2023-04-24T02:26:59;9.50;82.60
53926;DHT22;39836;52.754;6.866;2023-04-24T02:29:25;9.60;82.50
53926;DHT22;39836;52.754;6.866;2023-04-24T02:31:51;9.50;82.30
53926;DHT22;39836;52.754;6.866;2023-04-24T02:34:16;9.60;82.20
53926;DHT22;39836;52.754;6.866;2023-04-24T02:36:42;9.60;82.10
53926;DHT22;39836;52.754;6.866;2023-04-24T02:39:08;9.60;82.10
53926;DHT22;39836;52.754;6.866;2023-04-24T02:41:34;9.60;82.00
53926;DHT22;39836;52.754;6.866;2023-04-24T02:43:59;9.60;82.00
53926;DHT22;39836;52.754;6.866;2023-04-24T02:46:25;9.50;82.00
53926;DHT22;39836;52.754;6.866;2023-04-24T02:48:51;9.50;82.00
53926;DHT22;39836;52.754;6.866;2023-04-24T02:51:17;9.50;81.90
53926;DHT22;39836;52.754;6.866;2023-04-24T02:53:43;9.50;81.70
53926;DHT22;39836;52.754;6.866;2023-04-24T02:56:09;9.50;81.70
53926;DHT22;39836;52.754;6.866;2023-04-24T02:58:37;9.50;81.60
53926;DHT22;39836;52.754;6.866;2023-04-24T03:01:03;9.50;81.60
53926;DHT22;39836;52.754;6.866;2023-04-24T03:03:30;9.50;81.60
53926;DHT22;39836;52.754;6.866;2023-04-24T03:05:55;9.50;81.60
53926;DHT22;39836;52.754;6.866;2023-04-24T03:08:22;9.50;81.50
53926;DHT22;39836;52.754;6.866;2023-04-24T03:10:48;9.50;81.50
53926;DHT22;39836;52.754;6.866;2023-04-24T03:13:15;9.50;81.60
53926;DHT22;39836;52.754;6.866;2023-04-24T03:15:41;9.50;81.70
53926;DHT22;39836;52.754;6.866;2023-04-24T03:18:07;9.40;81.70
53926;DHT22;39836;52.754;6.866;2023-04-24T03:20:32;9.40;81.80
53926;DHT22;39836;52.754;6.866;2023-04-24T03:22:58;9.40;81.90
53926;DHT22;39836;52.754;6.866;2023-04-24T03:25:24;9.30;82.00
53926;DHT22;39836;52.754;6.866;2023-04-24T03:27:49;9.30;82.10
53926;DHT22;39836;52.754;6.866;2023-04-24T03:30:15;9.20;82.10
53926;DHT22;39836;52.754;6.866;2023-04-24T03:32:40;9.20;82.30
53926;DHT22;39836;52.754;6.866;2023-04-24T03:35:07;9.20;82.30
53926;DHT22;39836;52.754;6.866;2023-04-24T03:37:34;9.20;82.40
53926;DHT22;39836;52.754;6.866;2023-04-24T03:40:00;9.20;82.50
53926;DHT22;39836;52.754;6.866;2023-04-24T03:42:25;9.10;82.70
53926;DHT22;39836;52.754;6.866;2023-04-24T03:44:51;9.00;82.70
53926;DHT22;39836;52.754;6.866;2023-04-24T03:47:17;9.10;82.80
53926;DHT22;39836;52.754;6.866;2023-04-24T03:49:42;9.00;82.90
53926;DHT22;39836;52.754;6.866;2023-04-24T03:52:08;9.00;82.90
53926;DHT22;39836;52.754;6.866;2023-04-24T03:54:33;9.10;82.90
53926;DHT22;39836;52.754;6.866;2023-04-24T03:56:59;9.10;82.90
53926;DHT22;39836;52.754;6.866;2023-04-24T03:59:25;9.10;82.80
53926;DHT22;39836;52.754;6.866;2023-04-24T04:01:51;9.20;82.80
53926;DHT22;39836;52.754;6.866;2023-04-24T04:04:16;9.10;82.60
53926;DHT22;39836;52.754;6.866;2023-04-24T04:06:42;9.20;82.60
53926;DHT22;39836;52.754;6.866;2023-04-24T04:09:09;9.20;82.60
53926;DHT22;39836;52.754;6.866;2023-04-24T04:11:35;9.20;82.40
53926;DHT22;39836;52.754;6.866;2023-04-24T04:14:01;9.20;82.50
53926;DHT22;39836;52.754;6.866;2023-04-24T04:16:27;9.10;82.50
53926;DHT22;39836;52.754;6.866;2023-04-24T04:18:52;9.20;82.50
53926;DHT22;39836;52.754;6.866;2023-04-24T04:21:18;9.10;82.50
53926;DHT22;39836;52.754;6.866;2023-04-24T04:23:44;9.20;82.50
53926;DHT22;39836;52.754;6.866;2023-04-24T04:26:11;9.10;82.60
53926;DHT22;39836;52.754;6.866;2023-04-24T04:28:38;9.10;82.60
53926;DHT22;39836;52.754;6.866;2023-04-24T04:31:04;9.10;82.70
53926;DHT22;39836;52.754;6.866;2023-04-24T04:33:30;9.10;82.80
53926;DHT22;39836;52.754;6.866;2023-04-24T04:35:56;9.00;82.80
53926;DHT22;39836;52.754;6.866;2023-04-24T04:38:22;9.00;82.90
53926;DHT22;39836;52.754;6.866;2023-04-24T04:40:48;9.00;83.00
53926;DHT22;39836;52.754;6.866;2023-04-24T04:43:14;9.00;83.10
53926;DHT22;39836;52.754;6.866;2023-04-24T04:45:41;9.00;83.20
53926;DHT22;39836;52.754;6.866;2023-04-24T04:48:08;9.00;83.30
53926;DHT22;39836;52.754;6.866;2023-04-24T04:50:35;8.90;83.30
53926;DHT22;39836;52.754;6.866;2023-04-24T04:53:01;9.00;83.50
53926;DHT22;39836;52.754;6.866;2023-04-24T04:55:27;8.90;83.50
53926;DHT22;39836;52.754;6.866;2023-04-24T04:57:52;8.90;83.50
53926;DHT22;39836;52.754;6.866;2023-04-24T05:00:19;8.90;83.50
53926;DHT22;39836;52.754;6.866;2023-04-24T05:02:45;8.90;83.60
53926;DHT22;39836;52.754;6.866;2023-04-24T05:05:10;9.00;83.60
53926;DHT22;39836;52.754;6.866;2023-04-24T05:07:36;9.00;83.60
53926;DHT22;39836;52.754;6.866;2023-04-24T05:10:02;9.00;83.60
53926;DHT22;39836;52.754;6.866;2023-04-24T05:12:28;9.00;83.50
53926;DHT22;39836;52.754;6.866;2023-04-24T05:14:54;9.10;83.40
53926;DHT22;39836;52.754;6.866;2023-04-24T05:17:19;9.10;83.30
53926;DHT22;39836;52.754;6.866;2023-04-24T05:19:45;9.10;83.20
53926;DHT22;39836;52.754;6.866;2023-04-24T05:22:12;9.10;83.30
53926;DHT22;39836;52.754;6.866;2023-04-24T05:24:37;9.20;83.20
53926;DHT22;39836;52.754;6.866;2023-04-24T05:27:03;9.20;83.10
53926;DHT22;39836;52.754;6.866;2023-04-24T05:29:32;9.10;83.10
53926;DHT22;39836;52.754;6.866;2023-04-24T05:31:59;9.10;83.10
53926;DHT22;39836;52.754;6.866;2023-04-24T05:34:25;9.20;83.00
53926;DHT22;39836;52.754;6.866;2023-04-24T05:36:50;9.20;82.90
53926;DHT22;39836;52.754;6.866;2023-04-24T05:39:16;9.20;82.80
53926;DHT22;39836;52.754;6.866;2023-04-24T05:41:42;9.20;82.60
53926;DHT22;39836;52.754;6.866;2023-04-24T05:44:08;9.20;82.50
53926;DHT22;39836;52.754;6.866;2023-04-24T05:46:34;9.20;82.50
53926;DHT22;39836;52.754;6.866;2023-04-24T05:48:59;9.20;82.40
53926;DHT22;39836;52.754;6.866;2023-04-24T05:51:25;9.20;82.40
53926;DHT22;39836;52.754;6.866;2023-04-24T05:53:51;9.20;82.40
53926;DHT22;39836;52.754;6.866;2023-04-24T05:56:17;9.20;82.50
53926;DHT22;39836;52.754;6.866;2023-04-24T05:58:44;9.20;82.60
53926;DHT22;39836;52.754;6.866;2023-04-24T06:01:10;9.20;82.70
53926;DHT22;39836;52.754;6.866;2023-04-24T06:03:36;9.20;82.80
53926;DHT22;39836;52.754;6.866;2023-04-24T06:06:01;9.10;83.00
53926;DHT22;39836;52.754;6.866;2023-04-24T06:08:27;9.10;83.10
53926;DHT22;39836;52.754;6.866;2023-04-24T06:10:53;9.10;83.20
53926;DHT22;39836;52.754;6.866;2023-04-24T06:13:18;9.00;83.20
53926;DHT22;39836;52.754;6.866;2023-04-24T06:15:45;9.00;83.30
53926;DHT22;39836;52.754;6.866;2023-04-24T06:18:10;9.00;83.30
53926;DHT22;39836;52.754;6.866;2023-04-24T06:20:36;9.00;83.30
53926;DHT22;39836;52.754;6.866;2023-04-24T06:23:02;9.00;83.30
53926;DHT22;39836;52.754;6.866;2023-04-24T06:25:27;9.00;83.30
53926;DHT22;39836;52.754;6.866;2023-04-24T06:27:54;9.00;83.40
53926;DHT22;39836;52.754;6.866;2023-04-24T06:30:20;9.00;83.30
53926;DHT22;39836;52.754;6.866;2023-04-24T06:32:46;8.90;83.20
53926;DHT22;39836;52.754;6.866;2023-04-24T06:35:11;8.90;83.20
53926;DHT22;39836;52.754;6.866;2023-04-24T06:37:42;8.90;83.30
53926;DHT22;39836;52.754;6.866;2023-04-24T06:40:08;8.90;83.40
53926;DHT22;39836;52.754;6.866;2023-04-24T06:42:34;8.80;83.50
53926;DHT22;39836;52.754;6.866;2023-04-24T06:45:00;8.80;83.60
53926;DHT22;39836;52.754;6.866;2023-04-24T06:47:26;8.80;83.70
53926;DHT22;39836;52.754;6.866;2023-04-24T06:49:52;8.70;83.80
53926;DHT22;39836;52.754;6.866;2023-04-24T06:52:18;8.70;83.90
53926;DHT22;39836;52.754;6.866;2023-04-24T06:54:44;8.70;84.00
53926;DHT22;39836;52.754;6.866;2023-04-24T06:57:10;8.70;84.00
53926;DHT22;39836;52.754;6.866;2023-04-24T06:59:36;8.70;84.10
53926;DHT22;39836;52.754;6.866;2023-04-24T07:02:02;8.70;84.20
53926;DHT22;39836;52.754;6.866;2023-04-24T07:04:28;8.80;84.40
53926;DHT22;39836;52.754;6.866;2023-04-24T07:06:54;8.70;84.40
53926;DHT22;39836;52.754;6.866;2023-04-24T07:09:22;8.80;84.50
53926;DHT22;39836;52.754;6.866;2023-04-24T07:11:49;8.80;84.50
53926;DHT22;39836;52.754;6.866;2023-04-24T07:14:15;8.80;84.50
53926;DHT22;39836;52.754;6.866;2023-04-24T07:16:42;8.70;84.50
53926;DHT22;39836;52.754;6.866;2023-04-24T07:19:08;8.70;84.60
53926;DHT22;39836;52.754;6.866;2023-04-24T07:21:33;8.70;84.60
53926;DHT22;39836;52.754;6.866;2023-04-24T07:23:59;8.70;84.70
53926;DHT22;39836;52.754;6.866;2023-04-24T07:26:26;8.70;84.80
53926;DHT22;39836;52.754;6.866;2023-04-24T07:28:53;8.70;84.80
53926;DHT22;39836;52.754;6.866;2023-04-24T07:31:18;8.80;85.00
53926;DHT22;39836;52.754;6.866;2023-04-24T07:33:45;8.80;85.00
53926;DHT22;39836;52.754;6.866;2023-04-24T07:36:11;8.90;85.10
53926;DHT22;39836;52.754;6.866;2023-04-24T07:38:42;9.00;85.20
53926;DHT22;39836;52.754;6.866;2023-04-24T07:41:07;9.00;85.30
53926;DHT22;39836;52.754;6.866;2023-04-24T07:43:33;9.10;85.30
53926;DHT22;39836;52.754;6.866;2023-04-24T07:45:59;9.20;85.30
53926;DHT22;39836;52.754;6.866;2023-04-24T07:48:25;9.20;85.40
53926;DHT22;39836;52.754;6.866;2023-04-24T07:50:52;9.20;85.40
53926;DHT22;39836;52.754;6.866;2023-04-24T07:53:18;9.30;85.40
53926;DHT22;39836;52.754;6.866;2023-04-24T07:55:43;9.30;85.40
53926;DHT22;39836;52.754;6.866;2023-04-24T07:58:09;9.30;85.40
53926;DHT22;39836;52.754;6.866;2023-04-24T08:00:35;9.30;85.40
53926;DHT22;39836;52.754;6.866;2023-04-24T08:03:01;9.40;85.50
53926;DHT22;39836;52.754;6.866;2023-04-24T08:05:27;9.30;85.40
53926;DHT22;39836;52.754;6.866;2023-04-24T08:07:54;9.40;85.50
53926;DHT22;39836;52.754;6.866;2023-04-24T08:10:24;9.40;85.50
53926;DHT22;39836;52.754;6.866;2023-04-24T08:12:50;9.40;85.50
53926;DHT22;39836;52.754;6.866;2023-04-24T08:15:15;9.40;85.50
53926;DHT22;39836;52.754;6.866;2023-04-24T08:17:41;9.50;85.50
53926;DHT22;39836;52.754;6.866;2023-04-24T08:20:08;9.50;85.60
53926;DHT22;39836;52.754;6.866;2023-04-24T08:22:39;9.50;85.60
53926;DHT22;39836;52.754;6.866;2023-04-24T08:25:06;9.50;85.60
53926;DHT22;39836;52.754;6.866;2023-04-24T08:27:32;9.50;85.60
53926;DHT22;39836;52.754;6.866;2023-04-24T08:29:57;9.50;85.60
53926;DHT22;39836;52.754;6.866;2023-04-24T08:32:25;9.50;85.60
53926;DHT22;39836;52.754;6.866;2023-04-24T08:34:54;9.50;85.60
53926;DHT22;39836;52.754;6.866;2023-04-24T08:37:22;9.50;85.60
53926;DHT22;39836;52.754;6.866;2023-04-24T08:39:48;9.50;85.60
53926;DHT22;39836;52.754;6.866;2023-04-24T08:42:14;9.40;85.60
53926;DHT22;39836;52.754;6.866;2023-04-24T08:44:42;9.40;85.60
53926;DHT22;39836;52.754;6.866;2023-04-24T08:47:08;9.40;85.50
53926;DHT22;39836;52.754;6.866;2023-04-24T08:49:36;9.40;85.60
53926;DHT22;39836;52.754;6.866;2023-04-24T08:52:02;9.40;85.60
53926;DHT22;39836;52.754;6.866;2023-04-24T08:54:29;9.40;85.60
53926;DHT22;39836;52.754;6.866;2023-04-24T08:56:58;9.40;85.60
53926;DHT22;39836;52.754;6.866;2023-04-24T08:59:27;9.30;85.50
53926;DHT22;39836;52.754;6.866;2023-04-24T09:01:53;9.30;85.60
53926;DHT22;39836;52.754;6.866;2023-04-24T09:04:20;9.30;85.60
53926;DHT22;39836;52.754;6.866;2023-04-24T09:06:48;9.40;85.60
53926;DHT22;39836;52.754;6.866;2023-04-24T09:09:16;9.30;85.60
53926;DHT22;39836;52.754;6.866;2023-04-24T09:11:43;9.30;85.50
53926;DHT22;39836;52.754;6.866;2023-04-24T09:14:09;9.20;85.50
53926;DHT22;39836;52.754;6.866;2023-04-24T09:16:35;9.20;85.50
53926;DHT22;39836;52.754;6.866;2023-04-24T09:19:01;9.30;85.50
53926;DHT22;39836;52.754;6.866;2023-04-24T09:21:32;9.30;85.50
53926;DHT22;39836;52.754;6.866;2023-04-24T09:24:06;9.30;85.40
53926;DHT22;39836;52.754;6.866;2023-04-24T09:26:35;9.30;85.40
53926;DHT22;39836;52.754;6.866;2023-04-24T09:29:01;9.30;85.50
53926;DHT22;39836;52.754;6.866;2023-04-24T09:31:29;9.30;85.40
53926;DHT22;39836;52.754;6.866;2023-04-24T09:34:02;9.20;85.30
53926;DHT22;39836;52.754;6.866;2023-04-24T09:36:42;9.20;85.30
53926;DHT22;39836;52.754;6.866;2023-04-24T09:39:13;9.10;85.20
53926;DHT22;39836;52.754;6.866;2023-04-24T09:41:47;9.10;85.20
53926;DHT22;39836;52.754;6.866;2023-04-24T09:44:18;9.00;85.00
53926;DHT22;39836;52.754;6.866;2023-04-24T09:49:25;8.90;85.00
53926;DHT22;39836;52.754;6.866;2023-04-24T09:51:51;8.80;84.90
53926;DHT22;39836;52.754;6.866;2023-04-24T09:54:20;8.80;84.80
53926;DHT22;39836;52.754;6.866;2023-04-24T09:56:49;8.80;85.00
53926;DHT22;39836;52.754;6.866;2023-04-24T09:59:16;8.80;84.90
53926;DHT22;39836;52.754;6.866;2023-04-24T10:01:42;8.70;84.90
53926;DHT22;39836;52.754;6.866;2023-04-24T10:04:17;8.70;85.00
53926;DHT22;39836;52.754;6.866;2023-04-24T10:06:44;8.70;85.00
53926;DHT22;39836;52.754;6.866;2023-04-24T10:09:10;8.70;85.00
53926;DHT22;39836;52.754;6.866;2023-04-24T10:11:37;8.70;85.00
53926;DHT22;39836;52.754;6.866;2023-04-24T10:14:06;8.80;85.10
53926;DHT22;39836;52.754;6.866;2023-04-24T10:16:32;8.70;85.00
53926;DHT22;39836;52.754;6.866;2023-04-24T10:18:59;8.70;85.00
53926;DHT22;39836;52.754;6.866;2023-04-24T10:21:26;8.70;85.00
53926;DHT22;39836;52.754;6.866;2023-04-24T10:23:52;8.60;85.00
53926;DHT22;39836;52.754;6.866;2023-04-24T10:26:19;8.60;85.00
53926;DHT22;39836;52.754;6.866;2023-04-24T10:28:46;8.70;85.10
53926;DHT22;39836;52.754;6.866;2023-04-24T10:31:13;8.70;85.10
53926;DHT22;39836;52.754;6.866;2023-04-24T10:33:41;8.70;85.20
53926;DHT22;39836;52.754;6.866;2023-04-24T10:36:09;8.70;85.20
53926;DHT22;39836;52.754;6.866;2023-04-24T10:38:37;8.70;85.30
53926;DHT22;39836;52.754;6.866;2023-04-24T10:41:11;8.80;85.40
53926;DHT22;39836;52.754;6.866;2023-04-24T10:43:42;8.80;85.30
53926;DHT22;39836;52.754;6.866;2023-04-24T10:46:08;8.80;85.40
53926;DHT22;39836;52.754;6.866;2023-04-24T10:48:36;8.80;85.40
53926;DHT22;39836;52.754;6.866;2023-04-24T10:51:11;8.90;85.40
53926;DHT22;39836;52.754;6.866;2023-04-24T10:53:37;8.90;85.40
53926;DHT22;39836;52.754;6.866;2023-04-24T10:58:40;8.80;85.40
53926;DHT22;39836;52.754;6.866;2023-04-24T11:01:06;8.80;85.40
53926;DHT22;39836;52.754;6.866;2023-04-24T11:03:34;8.70;85.20
53926;DHT22;39836;52.754;6.866;2023-04-24T11:06:05;8.60;85.10
53926;DHT22;39836;52.754;6.866;2023-04-24T11:08:48;8.60;85.20
53926;DHT22;39836;52.754;6.866;2023-04-24T11:11:16;8.50;85.10
53926;DHT22;39836;52.754;6.866;2023-04-24T11:16:52;8.50;85.10
53926;DHT22;39836;52.754;6.866;2023-04-24T11:19:25;8.40;85.00
53926;DHT22;39836;52.754;6.866;2023-04-24T11:21:59;8.30;85.00
53926;DHT22;39836;52.754;6.866;2023-04-24T11:24:27;8.40;85.00
53926;DHT22;39836;52.754;6.866;2023-04-24T11:34:49;8.60;85.00
53926;DHT22;39836;52.754;6.866;2023-04-24T11:37:16;8.50;84.70
53926;DHT22;39836;52.754;6.866;2023-04-24T11:39:42;8.40;84.50
53926;DHT22;39836;52.754;6.866;2023-04-24T11:42:09;8.40;84.60
53926;DHT22;39836;52.754;6.866;2023-04-24T11:44:35;8.40;84.50
53926;DHT22;39836;52.754;6.866;2023-04-24T11:47:06;8.40;84.50
53926;DHT22;39836;52.754;6.866;2023-04-24T11:49:36;8.40;84.40
53926;DHT22;39836;52.754;6.866;2023-04-24T11:52:03;8.40;84.40
53926;DHT22;39836;52.754;6.866;2023-04-24T11:54:29;8.40;84.20
53926;DHT22;39836;52.754;6.866;2023-04-24T11:56:56;8.40;84.20
53926;DHT22;39836;52.754;6.866;2023-04-24T11:59:22;8.50;83.80
53926;DHT22;39836;52.754;6.866;2023-04-24T12:01:48;8.50;82.90
53926;DHT22;39836;52.754;6.866;2023-04-24T12:04:18;8.60;82.70
53926;DHT22;39836;52.754;6.866;2023-04-24T12:07:03;8.70;83.00
53926;DHT22;39836;52.754;6.866;2023-04-24T12:09:39;8.90;83.20
53926;DHT22;39836;52.754;6.866;2023-04-24T12:12:06;8.90;83.10
53926;DHT22;39836;52.754;6.866;2023-04-24T12:14:32;9.10;82.90
53926;DHT22;39836;52.754;6.866;2023-04-24T12:16:57;9.10;82.50
53926;DHT22;39836;52.754;6.866;2023-04-24T12:19:23;9.20;82.50
53926;DHT22;39836;52.754;6.866;2023-04-24T12:22:04;9.20;82.20
53926;DHT22;39836;52.754;6.866;2023-04-24T12:24:30;9.10;82.30
53926;DHT22;39836;52.754;6.866;2023-04-24T12:26:57;9.00;82.10
53926;DHT22;39836;52.754;6.866;2023-04-24T12:29:24;9.00;82.10
53926;DHT22;39836;52.754;6.866;2023-04-24T12:31:50;8.90;82.20
53926;DHT22;39836;52.754;6.866;2023-04-24T12:34:25;8.90;81.70
53926;DHT22;39836;52.754;6.866;2023-04-24T12:36:51;8.90;81.70
53926;DHT22;39836;52.754;6.866;2023-04-24T12:39:20;8.90;81.20
53926;DHT22;39836;52.754;6.866;2023-04-24T12:41:58;8.90;80.90
53926;DHT22;39836;52.754;6.866;2023-04-24T12:44:34;8.80;81.00
53926;DHT22;39836;52.754;6.866;2023-04-24T12:47:01;8.80;81.20
53926;DHT22;39836;52.754;6.866;2023-04-24T12:49:27;8.80;81.40
53926;DHT22;39836;52.754;6.866;2023-04-24T12:51:53;8.90;81.40
53926;DHT22;39836;52.754;6.866;2023-04-24T12:54:19;8.90;81.60
53926;DHT22;39836;52.754;6.866;2023-04-24T12:56:45;9.00;81.40
53926;DHT22;39836;52.754;6.866;2023-04-24T12:59:11;9.00;81.30
53926;DHT22;39836;52.754;6.866;2023-04-24T13:01:36;8.90;81.50
53926;DHT22;39836;52.754;6.866;2023-04-24T13:04:02;8.90;81.30
53926;DHT22;39836;52.754;6.866;2023-04-24T13:06:28;8.80;81.10
53926;DHT22;39836;52.754;6.866;2023-04-24T13:08:53;8.70;81.30
53926;DHT22;39836;52.754;6.866;2023-04-24T13:11:20;8.70;81.60
53926;DHT22;39836;52.754;6.866;2023-04-24T13:13:47;8.80;81.50
53926;DHT22;39836;52.754;6.866;2023-04-24T13:16:13;8.90;81.10
53926;DHT22;39836;52.754;6.866;2023-04-24T13:18:39;9.00;81.00
53926;DHT22;39836;52.754;6.866;2023-04-24T13:21:04;9.10;81.20
53926;DHT22;39836;52.754;6.866;2023-04-24T13:23:30;9.20;80.90
53926;DHT22;39836;52.754;6.866;2023-04-24T13:25:56;9.30;81.00
53926;DHT22;39836;52.754;6.866;2023-04-24T13:28:24;9.30;80.50
53926;DHT22;39836;52.754;6.866;2023-04-24T13:30:51;9.30;79.80
53926;DHT22;39836;52.754;6.866;2023-04-24T13:33:16;9.20;80.10
53926;DHT22;39836;52.754;6.866;2023-04-24T13:35:42;9.20;79.80
53926;DHT22;39836;52.754;6.866;2023-04-24T13:38:08;9.10;80.20
53926;DHT22;39836;52.754;6.866;2023-04-24T13:40:33;9.00;80.30
53926;DHT22;39836;52.754;6.866;2023-04-24T13:42:59;8.90;80.30
53926;DHT22;39836;52.754;6.866;2023-04-24T13:45:26;8.90;80.30
53926;DHT22;39836;52.754;6.866;2023-04-24T13:47:52;8.90;80.60
53926;DHT22;39836;52.754;6.866;2023-04-24T13:50:19;8.90;80.50
53926;DHT22;39836;52.754;6.866;2023-04-24T13:52:45;9.00;80.60
53926;DHT22;39836;52.754;6.866;2023-04-24T13:55:11;9.10;80.70
53926;DHT22;39836;52.754;6.866;2023-04-24T13:57:37;9.20;81.00
53926;DHT22;39836;52.754;6.866;2023-04-24T14:00:03;9.20;80.80
53926;DHT22;39836;52.754;6.866;2023-04-24T14:02:29;9.20;80.50
53926;DHT22;39836;52.754;6.866;2023-04-24T14:04:55;9.10;80.40
53926;DHT22;39836;52.754;6.866;2023-04-24T14:07:21;9.10;80.70
53926;DHT22;39836;52.754;6.866;2023-04-24T14:09:47;9.10;80.70
53926;DHT22;39836;52.754;6.866;2023-04-24T14:12:13;9.00;80.80
53926;DHT22;39836;52.754;6.866;2023-04-24T14:14:39;9.00;80.40
53926;DHT22;39836;52.754;6.866;2023-04-24T14:17:05;9.00;80.60
53926;DHT22;39836;52.754;6.866;2023-04-24T14:19:31;9.00;80.50
53926;DHT22;39836;52.754;6.866;2023-04-24T14:21:56;9.00;80.50
53926;DHT22;39836;52.754;6.866;2023-04-24T14:24:23;8.90;80.10
53926;DHT22;39836;52.754;6.866;2023-04-24T14:26:49;8.90;80.40
53926;DHT22;39836;52.754;6.866;2023-04-24T14:29:15;8.70;80.50
53926;DHT22;39836;52.754;6.866;2023-04-24T14:31:42;8.60;80.90
53926;DHT22;39836;52.754;6.866;2023-04-24T14:34:08;8.50;80.80
53926;DHT22;39836;52.754;6.866;2023-04-24T14:36:33;8.50;80.70
53926;DHT22;39836;52.754;6.866;2023-04-24T14:38:59;8.50;80.80
53926;DHT22;39836;52.754;6.866;2023-04-24T14:41:25;8.50;81.00
53926;DHT22;39836;52.754;6.866;2023-04-24T14:43:50;8.40;81.10
53926;DHT22;39836;52.754;6.866;2023-04-24T14:46:16;8.40;81.30
53926;DHT22;39836;52.754;6.866;2023-04-24T14:48:42;8.40;81.40
53926;DHT22;39836;52.754;6.866;2023-04-24T14:51:07;8.40;81.60
53926;DHT22;39836;52.754;6.866;2023-04-24T14:53:34;8.50;81.70
53926;DHT22;39836;52.754;6.866;2023-04-24T14:55:59;8.50;81.80
53926;DHT22;39836;52.754;6.866;2023-04-24T14:58:25;8.40;81.70
53926;DHT22;39836;52.754;6.866;2023-04-24T15:00:51;8.50;82.00
53926;DHT22;39836;52.754;6.866;2023-04-24T15:03:19;8.50;81.90
53926;DHT22;39836;52.754;6.866;2023-04-24T15:05:46;8.60;82.10
53926;DHT22;39836;52.754;6.866;2023-04-24T15:08:11;8.60;81.60
53926;DHT22;39836;52.754;6.866;2023-04-24T15:10:37;8.70;82.00
53926;DHT22;39836;52.754;6.866;2023-04-24T15:13:03;8.80;81.70
53926;DHT22;39836;52.754;6.866;2023-04-24T15:15:29;8.80;81.70
53926;DHT22;39836;52.754;6.866;2023-04-24T15:17:55;8.90;81.30
53926;DHT22;39836;52.754;6.866;2023-04-24T15:20:21;8.90;81.10
53926;DHT22;39836;52.754;6.866;2023-04-24T15:22:46;8.90;80.60
53926;DHT22;39836;52.754;6.866;2023-04-24T15:25:12;8.90;80.90
53926;DHT22;39836;52.754;6.866;2023-04-24T15:27:45;8.90;81.10
53926;DHT22;39836;52.754;6.866;2023-04-24T15:30:11;9.00;80.80
53926;DHT22;39836;52.754;6.866;2023-04-24T15:32:38;9.00;80.40
53926;DHT22;39836;52.754;6.866;2023-04-24T15:35:04;9.00;80.60
53926;DHT22;39836;52.754;6.866;2023-04-24T15:37:30;9.10;80.60
53926;DHT22;39836;52.754;6.866;2023-04-24T15:39:56;9.10;80.10
53926;DHT22;39836;52.754;6.866;2023-04-24T15:42:22;9.00;80.20
53926;DHT22;39836;52.754;6.866;2023-04-24T15:44:47;9.10;80.30
53926;DHT22;39836;52.754;6.866;2023-04-24T15:47:13;9.20;80.00
53926;DHT22;39836;52.754;6.866;2023-04-24T15:49:39;9.30;80.50
53926;DHT22;39836;52.754;6.866;2023-04-24T15:52:05;9.40;80.00
53926;DHT22;39836;52.754;6.866;2023-04-24T15:54:31;9.40;79.30
53926;DHT22;39836;52.754;6.866;2023-04-24T15:56:57;9.50;79.70